If you wish to contribute or participate in the discussions about articles you are invited to join SKYbrary as a registered user

 Actions

Cruzeiro do Sul International Airport

From SKYbrary Wiki

SBCZ
Airport
ICAO: SBCZ – IATA: CZS
Summary
Name Cruzeiro do Sul International Airport
Region South America and Caribbean
Territory Brazil BR.gif
Location Cruzeiro do Sul, Acre
Serving Cruzeiro do Sul
Elevation 194.158 m
637 ft194.158 m
Coordinates 7° 35' 57.98" S, 72° 46' 9.98" W
Runways
Designator Length Width Surface ROPS
10/28 2400 m7,874.016 ft
45 m147.638 ft
ASP /


METAR
Observation SBCZ 081400Z 03004KT 9999 FEW007 BKN100 28/25 Q1012
Station Cruzeiro Do Sul
Date/Time 08 December 2019 14:00:00
Wind direction 30°
Wind speed 04 kts
Lowest cloud amount few clouds
Temperature 28°C
Dew point 25°C
Humidity 83%
QNH 1012 hPa
Weather condition n/a

Cruzeiro do Sul International Airport is the airport serving Cruzeiro do Sul, Brazil.

Climatology

Tropical rainforest climate (Köppen climate classification Af)

Maps

Terrain

Loading map...

Airport Layout

Loading map...


Accidents & Serious Incidents at or in vicinity of SBCZ

None on SKYbrary